sensor_id;sensor_type;location;lat;lon;timestamp;P1;durP1;ratioP1;P2;durP2;ratioP2
6852;SDS011;3465;42.144;24.722;2024-01-25T00:01:44;21.77;;;9.60;;
6852;SDS011;3465;42.144;24.722;2024-01-25T00:04:10;19.58;;;10.43;;
6852;SDS011;3465;42.144;24.722;2024-01-25T00:06:35;17.00;;;10.07;;
6852;SDS011;3465;42.144;24.722;2024-01-25T00:09:01;18.63;;;10.55;;
6852;SDS011;3465;42.144;24.722;2024-01-25T00:11:27;15.52;;;9.45;;
6852;SDS011;3465;42.144;24.722;2024-01-25T00:13:56;19.20;;;9.48;;
6852;SDS011;3465;42.144;24.722;2024-01-25T00:16:22;16.65;;;8.57;;
6852;SDS011;3465;42.144;24.722;2024-01-25T00:18:48;17.15;;;9.32;;
6852;SDS011;3465;42.144;24.722;2024-01-25T00:21:13;20.65;;;8.23;;
6852;SDS011;3465;42.144;24.722;2024-01-25T00:23:39;18.88;;;10.63;;
6852;SDS011;3465;42.144;24.722;2024-01-25T00:26:04;16.38;;;9.57;;
6852;SDS011;3465;42.144;24.722;2024-01-25T00:28:30;19.38;;;10.18;;
6852;SDS011;3465;42.144;24.722;2024-01-25T00:30:55;17.80;;;9.25;;
6852;SDS011;3465;42.144;24.722;2024-01-25T00:33:21;21.17;;;10.50;;
6852;SDS011;3465;42.144;24.722;2024-01-25T00:35:46;20.95;;;11.27;;
6852;SDS011;3465;42.144;24.722;2024-01-25T00:38:13;21.77;;;9.40;;
6852;SDS011;3465;42.144;24.722;2024-01-25T00:40:39;16.15;;;9.32;;
6852;SDS011;3465;42.144;24.722;2024-01-25T00:43:05;20.40;;;9.88;;
6852;SDS011;3465;42.144;24.722;2024-01-25T00:45:31;20.45;;;9.98;;
6852;SDS011;3465;42.144;24.722;2024-01-25T00:47:56;17.25;;;10.38;;
6852;SDS011;3465;42.144;24.722;2024-01-25T00:50:22;15.52;;;8.70;;
6852;SDS011;3465;42.144;24.722;2024-01-25T00:52:51;16.83;;;8.77;;
6852;SDS011;3465;42.144;24.722;2024-01-25T00:55:17;17.05;;;8.40;;
6852;SDS011;3465;42.144;24.722;2024-01-25T00:57:43;16.95;;;9.77;;
6852;SDS011;3465;42.144;24.722;2024-01-25T01:00:09;17.23;;;9.60;;
6852;SDS011;3465;42.144;24.722;2024-01-25T01:02:36;14.85;;;8.55;;
6852;SDS011;3465;42.144;24.722;2024-01-25T01:05:06;14.70;;;7.78;;
6852;SDS011;3465;42.144;24.722;2024-01-25T01:09:57;18.60;;;8.32;;
6852;SDS011;3465;42.144;24.722;2024-01-25T01:12:23;15.48;;;6.32;;
6852;SDS011;3465;42.144;24.722;2024-01-25T01:14:48;18.02;;;6.80;;
6852;SDS011;3465;42.144;24.722;2024-01-25T01:17:14;8.82;;;4.07;;
6852;SDS011;3465;42.144;24.722;2024-01-25T01:19:40;12.43;;;4.43;;
6852;SDS011;3465;42.144;24.722;2024-01-25T01:22:06;9.32;;;3.67;;
6852;SDS011;3465;42.144;24.722;2024-01-25T01:24:31;4.43;;;2.65;;
6852;SDS011;3465;42.144;24.722;2024-01-25T01:26:57;7.43;;;2.15;;
6852;SDS011;3465;42.144;24.722;2024-01-25T01:29:24;2.33;;;1.40;;
6852;SDS011;3465;42.144;24.722;2024-01-25T01:31:49;3.60;;;2.08;;
6852;SDS011;3465;42.144;24.722;2024-01-25T01:34:15;5.47;;;2.70;;
6852;SDS011;3465;42.144;24.722;2024-01-25T01:36:42;5.97;;;2.42;;
6852;SDS011;3465;42.144;24.722;2024-01-25T01:39:08;2.00;;;1.05;;
6852;SDS011;3465;42.144;24.722;2024-01-25T01:41:34;3.38;;;1.13;;
6852;SDS011;3465;42.144;24.722;2024-01-25T01:43:59;3.08;;;1.73;;
6852;SDS011;3465;42.144;24.722;2024-01-25T01:46:35;4.22;;;1.63;;
6852;SDS011;3465;42.144;24.722;2024-01-25T01:49:11;5.47;;;1.45;;
6852;SDS011;3465;42.144;24.722;2024-01-25T01:51:41;2.92;;;1.25;;
6852;SDS011;3465;42.144;24.722;2024-01-25T01:54:09;2.65;;;1.20;;
6852;SDS011;3465;42.144;24.722;2024-01-25T01:56:35;2.45;;;0.90;;
6852;SDS011;3465;42.144;24.722;2024-01-25T01:59:04;3.78;;;1.38;;
6852;SDS011;3465;42.144;24.722;2024-01-25T02:01:33;3.58;;;1.50;;
6852;SDS011;3465;42.144;24.722;2024-01-25T02:03:59;4.40;;;1.23;;
6852;SDS011;3465;42.144;24.722;2024-01-25T02:06:24;4.53;;;1.52;;
6852;SDS011;3465;42.144;24.722;2024-01-25T02:08:50;3.63;;;1.05;;
6852;SDS011;3465;42.144;24.722;2024-01-25T02:11:18;5.20;;;1.20;;
6852;SDS011;3465;42.144;24.722;2024-01-25T02:13:44;4.63;;;1.52;;
6852;SDS011;3465;42.144;24.722;2024-01-25T02:16:10;2.60;;;1.30;;
6852;SDS011;3465;42.144;24.722;2024-01-25T02:18:35;3.83;;;1.00;;
6852;SDS011;3465;42.144;24.722;2024-01-25T02:21:01;4.00;;;0.93;;
6852;SDS011;3465;42.144;24.722;2024-01-25T02:23:27;3.40;;;1.20;;
6852;SDS011;3465;42.144;24.722;2024-01-25T02:25:52;3.35;;;0.93;;
6852;SDS011;3465;42.144;24.722;2024-01-25T02:28:18;2.90;;;1.65;;
6852;SDS011;3465;42.144;24.722;2024-01-25T02:30:44;2.13;;;0.98;;
6852;SDS011;3465;42.144;24.722;2024-01-25T02:33:09;6.60;;;1.10;;
6852;SDS011;3465;42.144;24.722;2024-01-25T02:35:35;2.63;;;1.52;;
6852;SDS011;3465;42.144;24.722;2024-01-25T02:38:01;1.70;;;1.02;;
6852;SDS011;3465;42.144;24.722;2024-01-25T02:40:27;1.70;;;1.20;;
6852;SDS011;3465;42.144;24.722;2024-01-25T02:42:52;3.05;;;1.35;;
6852;SDS011;3465;42.144;24.722;2024-01-25T02:45:18;2.53;;;1.00;;
6852;SDS011;3465;42.144;24.722;2024-01-25T02:47:43;1.50;;;1.38;;
6852;SDS011;3465;42.144;24.722;2024-01-25T02:50:09;2.17;;;1.25;;
6852;SDS011;3465;42.144;24.722;2024-01-25T02:52:34;4.10;;;1.27;;
6852;SDS011;3465;42.144;24.722;2024-01-25T02:55:00;3.88;;;0.95;;
6852;SDS011;3465;42.144;24.722;2024-01-25T02:57:25;3.42;;;0.95;;
6852;SDS011;3465;42.144;24.722;2024-01-25T02:59:51;2.42;;;1.48;;
6852;SDS011;3465;42.144;24.722;2024-01-25T03:02:16;3.10;;;1.23;;
6852;SDS011;3465;42.144;24.722;2024-01-25T03:04:44;2.58;;;1.17;;
6852;SDS011;3465;42.144;24.722;2024-01-25T03:07:13;1.98;;;1.48;;
6852;SDS011;3465;42.144;24.722;2024-01-25T03:09:38;2.70;;;0.90;;
6852;SDS011;3465;42.144;24.722;2024-01-25T03:12:04;2.45;;;1.98;;
6852;SDS011;3465;42.144;24.722;2024-01-25T03:14:30;3.33;;;0.70;;
6852;SDS011;3465;42.144;24.722;2024-01-25T03:16:55;1.73;;;0.55;;
6852;SDS011;3465;42.144;24.722;2024-01-25T03:19:23;1.98;;;0.50;;
6852;SDS011;3465;42.144;24.722;2024-01-25T03:21:50;2.03;;;0.52;;
6852;SDS011;3465;42.144;24.722;2024-01-25T03:24:15;1.45;;;0.50;;
6852;SDS011;3465;42.144;24.722;2024-01-25T03:26:41;3.97;;;1.02;;
6852;SDS011;3465;42.144;24.722;2024-01-25T03:29:06;3.17;;;0.73;;
6852;SDS011;3465;42.144;24.722;2024-01-25T03:31:32;1.55;;;0.40;;
6852;SDS011;3465;42.144;24.722;2024-01-25T03:33:58;3.85;;;1.20;;
6852;SDS011;3465;42.144;24.722;2024-01-25T03:36:23;2.08;;;1.15;;
6852;SDS011;3465;42.144;24.722;2024-01-25T03:38:49;2.10;;;1.02;;
6852;SDS011;3465;42.144;24.722;2024-01-25T03:41:14;2.50;;;1.52;;
6852;SDS011;3465;42.144;24.722;2024-01-25T03:43:40;3.40;;;1.20;;
6852;SDS011;3465;42.144;24.722;2024-01-25T03:46:05;1.98;;;0.88;;
6852;SDS011;3465;42.144;24.722;2024-01-25T03:48:31;3.10;;;1.23;;
6852;SDS011;3465;42.144;24.722;2024-01-25T03:50:57;3.08;;;0.77;;
6852;SDS011;3465;42.144;24.722;2024-01-25T03:53:22;3.53;;;0.98;;
6852;SDS011;3465;42.144;24.722;2024-01-25T03:55:48;2.75;;;0.85;;
6852;SDS011;3465;42.144;24.722;2024-01-25T03:58:14;2.35;;;0.80;;
6852;SDS011;3465;42.144;24.722;2024-01-25T04:00:40;2.55;;;0.80;;
6852;SDS011;3465;42.144;24.722;2024-01-25T04:03:05;1.42;;;0.70;;
6852;SDS011;3465;42.144;24.722;2024-01-25T04:05:31;1.10;;;0.38;;
6852;SDS011;3465;42.144;24.722;2024-01-25T04:07:56;1.27;;;0.40;;
6852;SDS011;3465;42.144;24.722;2024-01-25T04:10:22;1.02;;;0.10;;
6852;SDS011;3465;42.144;24.722;2024-01-25T04:12:47;1.58;;;0.10;;
6852;SDS011;3465;42.144;24.722;2024-01-25T04:15:13;1.00;;;0.20;;
6852;SDS011;3465;42.144;24.722;2024-01-25T04:17:38;2.00;;;0.30;;
6852;SDS011;3465;42.144;24.722;2024-01-25T04:20:04;5.78;;;0.20;;
6852;SDS011;3465;42.144;24.722;2024-01-25T04:22:30;0.93;;;0.50;;
6852;SDS011;3465;42.144;24.722;2024-01-25T04:25:15;1.95;;;0.28;;
6852;SDS011;3465;42.144;24.722;2024-01-25T04:27:40;1.25;;;0.50;;
6852;SDS011;3465;42.144;24.722;2024-01-25T04:30:06;1.75;;;0.70;;
6852;SDS011;3465;42.144;24.722;2024-01-25T04:32:33;4.20;;;0.40;;
6852;SDS011;3465;42.144;24.722;2024-01-25T04:34:59;0.65;;;0.20;;
6852;SDS011;3465;42.144;24.722;2024-01-25T04:37:24;2.85;;;0.50;;
6852;SDS011;3465;42.144;24.722;2024-01-25T04:39:50;1.17;;;0.40;;
6852;SDS011;3465;42.144;24.722;2024-01-25T04:42:15;0.88;;;0.20;;
6852;SDS011;3465;42.144;24.722;2024-01-25T04:44:41;2.85;;;0.20;;
6852;SDS011;3465;42.144;24.722;2024-01-25T04:47:06;4.30;;;0.50;;
6852;SDS011;3465;42.144;24.722;2024-01-25T04:49:32;1.13;;;0.30;;
6852;SDS011;3465;42.144;24.722;2024-01-25T04:51:59;1.42;;;0.25;;
6852;SDS011;3465;42.144;24.722;2024-01-25T04:54:25;2.58;;;0.30;;
6852;SDS011;3465;42.144;24.722;2024-01-25T04:56:51;2.03;;;0.73;;
6852;SDS011;3465;42.144;24.722;2024-01-25T04:59:16;1.13;;;0.32;;
6852;SDS011;3465;42.144;24.722;2024-01-25T05:01:42;3.13;;;0.50;;
6852;SDS011;3465;42.144;24.722;2024-01-25T05:04:07;1.27;;;0.32;;
6852;SDS011;3465;42.144;24.722;2024-01-25T05:06:33;2.38;;;0.57;;
6852;SDS011;3465;42.144;24.722;2024-01-25T05:08:59;3.38;;;1.15;;
6852;SDS011;3465;42.144;24.722;2024-01-25T05:11:24;4.57;;;0.63;;
6852;SDS011;3465;42.144;24.722;2024-01-25T05:13:49;2.95;;;0.25;;
6852;SDS011;3465;42.144;24.722;2024-01-25T05:16:15;1.90;;;0.52;;
6852;SDS011;3465;42.144;24.722;2024-01-25T05:18:40;4.65;;;0.73;;
6852;SDS011;3465;42.144;24.722;2024-01-25T05:21:06;1.85;;;0.20;;
6852;SDS011;3465;42.144;24.722;2024-01-25T05:23:31;2.55;;;0.30;;
6852;SDS011;3465;42.144;24.722;2024-01-25T05:25:57;2.95;;;0.60;;
6852;SDS011;3465;42.144;24.722;2024-01-25T05:28:22;2.15;;;0.60;;
6852;SDS011;3465;42.144;24.722;2024-01-25T05:30:49;1.45;;;0.80;;
6852;SDS011;3465;42.144;24.722;2024-01-25T05:33:15;2.17;;;0.98;;
6852;SDS011;3465;42.144;24.722;2024-01-25T05:35:40;3.45;;;0.22;;
6852;SDS011;3465;42.144;24.722;2024-01-25T05:38:06;3.45;;;0.90;;
6852;SDS011;3465;42.144;24.722;2024-01-25T05:40:31;1.77;;;0.60;;
6852;SDS011;3465;42.144;24.722;2024-01-25T05:42:57;0.93;;;0.43;;
6852;SDS011;3465;42.144;24.722;2024-01-25T05:45:22;3.25;;;0.98;;
6852;SDS011;3465;42.144;24.722;2024-01-25T05:47:49;2.28;;;0.55;;
6852;SDS011;3465;42.144;24.722;2024-01-25T05:50:15;4.82;;;0.60;;
6852;SDS011;3465;42.144;24.722;2024-01-25T05:52:41;0.82;;;0.25;;
6852;SDS011;3465;42.144;24.722;2024-01-25T05:55:07;4.28;;;0.30;;
6852;SDS011;3465;42.144;24.722;2024-01-25T05:57:34;2.78;;;0.32;;
6852;SDS011;3465;42.144;24.722;2024-01-25T06:00:00;2.05;;;0.17;;
6852;SDS011;3465;42.144;24.722;2024-01-25T06:02:26;0.70;;;0.20;;
6852;SDS011;3465;42.144;24.722;2024-01-25T06:04:51;3.30;;;0.50;;
6852;SDS011;3465;42.144;24.722;2024-01-25T06:07:17;1.02;;;0.32;;
6852;SDS011;3465;42.144;24.722;2024-01-25T06:09:42;2.42;;;0.40;;
6852;SDS011;3465;42.144;24.722;2024-01-25T06:12:08;5.20;;;0.52;;
6852;SDS011;3465;42.144;24.722;2024-01-25T06:14:33;4.53;;;0.70;;
6852;SDS011;3465;42.144;24.722;2024-01-25T06:16:59;1.60;;;0.17;;
6852;SDS011;3465;42.144;24.722;2024-01-25T06:19:24;0.73;;;0.22;;
6852;SDS011;3465;42.144;24.722;2024-01-25T06:21:50;2.03;;;1.15;;
6852;SDS011;3465;42.144;24.722;2024-01-25T06:24:15;2.97;;;1.55;;
6852;SDS011;3465;42.144;24.722;2024-01-25T06:26:41;1.38;;;0.82;;
6852;SDS011;3465;42.144;24.722;2024-01-25T06:29:06;6.28;;;1.15;;
6852;SDS011;3465;42.144;24.722;2024-01-25T06:31:32;2.63;;;0.63;;
6852;SDS011;3465;42.144;24.722;2024-01-25T06:33:57;1.17;;;0.40;;
6852;SDS011;3465;42.144;24.722;2024-01-25T06:36:22;11.32;;;1.35;;
6852;SDS011;3465;42.144;24.722;2024-01-25T06:38:48;1.80;;;0.50;;
6852;SDS011;3465;42.144;24.722;2024-01-25T06:41:14;2.38;;;0.47;;
6852;SDS011;3465;42.144;24.722;2024-01-25T06:43:41;1.63;;;0.47;;
6852;SDS011;3465;42.144;24.722;2024-01-25T06:46:07;1.80;;;0.22;;
6852;SDS011;3465;42.144;24.722;2024-01-25T06:48:32;4.25;;;0.50;;
6852;SDS011;3465;42.144;24.722;2024-01-25T06:50:58;1.70;;;0.47;;
6852;SDS011;3465;42.144;24.722;2024-01-25T06:53:25;1.52;;;0.73;;
6852;SDS011;3465;42.144;24.722;2024-01-25T06:55:51;7.78;;;0.75;;
6852;SDS011;3465;42.144;24.722;2024-01-25T06:58:16;3.95;;;0.50;;
6852;SDS011;3465;42.144;24.722;2024-01-25T07:00:42;1.13;;;0.32;;
6852;SDS011;3465;42.144;24.722;2024-01-25T07:03:08;3.50;;;0.40;;
6852;SDS011;3465;42.144;24.722;2024-01-25T07:05:34;2.53;;;0.70;;
6852;SDS011;3465;42.144;24.722;2024-01-25T07:08:00;2.22;;;0.82;;
6852;SDS011;3465;42.144;24.722;2024-01-25T07:10:29;1.92;;;0.55;;
6852;SDS011;3465;42.144;24.722;2024-01-25T07:12:55;4.30;;;0.80;;
6852;SDS011;3465;42.144;24.722;2024-01-25T07:15:20;4.78;;;0.85;;
6852;SDS011;3465;42.144;24.722;2024-01-25T07:17:46;2.15;;;0.30;;
6852;SDS011;3465;42.144;24.722;2024-01-25T07:20:12;5.25;;;0.82;;
6852;SDS011;3465;42.144;24.722;2024-01-25T07:22:37;2.83;;;1.08;;
6852;SDS011;3465;42.144;24.722;2024-01-25T07:25:03;4.35;;;1.17;;
6852;SDS011;3465;42.144;24.722;2024-01-25T07:29:54;5.45;;;0.70;;
6852;SDS011;3465;42.144;24.722;2024-01-25T07:32:20;2.85;;;1.02;;
6852;SDS011;3465;42.144;24.722;2024-01-25T07:34:46;2.35;;;0.60;;
6852;SDS011;3465;42.144;24.722;2024-01-25T07:37:12;5.18;;;0.90;;
6852;SDS011;3465;42.144;24.722;2024-01-25T07:39:38;2.28;;;0.32;;
6852;SDS011;3465;42.144;24.722;2024-01-25T07:42:03;7.00;;;1.10;;
6852;SDS011;3465;42.144;24.722;2024-01-25T07:44:29;1.77;;;0.90;;
6852;SDS011;3465;42.144;24.722;2024-01-25T07:46:55;3.88;;;0.65;;
6852;SDS011;3465;42.144;24.722;2024-01-25T07:49:20;2.95;;;1.00;;
6852;SDS011;3465;42.144;24.722;2024-01-25T07:51:46;5.38;;;0.70;;
6852;SDS011;3465;42.144;24.722;2024-01-25T07:54:12;4.22;;;1.60;;
6852;SDS011;3465;42.144;24.722;2024-01-25T07:56:37;3.25;;;0.80;;
6852;SDS011;3465;42.144;24.722;2024-01-25T07:59:03;5.30;;;0.60;;
6852;SDS011;3465;42.144;24.722;2024-01-25T08:01:28;3.45;;;1.25;;
6852;SDS011;3465;42.144;24.722;2024-01-25T08:03:54;2.97;;;1.20;;
6852;SDS011;3465;42.144;24.722;2024-01-25T08:06:20;5.28;;;1.42;;
6852;SDS011;3465;42.144;24.722;2024-01-25T08:08:47;2.55;;;0.80;;
6852;SDS011;3465;42.144;24.722;2024-01-25T08:11:13;3.53;;;1.30;;
6852;SDS011;3465;42.144;24.722;2024-01-25T08:16:09;4.82;;;1.50;;
6852;SDS011;3465;42.144;24.722;2024-01-25T08:18:35;2.97;;;0.70;;
6852;SDS011;3465;42.144;24.722;2024-01-25T08:23:26;4.07;;;1.42;;
6852;SDS011;3465;42.144;24.722;2024-01-25T08:28:18;2.90;;;0.77;;
6852;SDS011;3465;42.144;24.722;2024-01-25T08:30:45;5.55;;;1.42;;
6852;SDS011;3465;42.144;24.722;2024-01-25T08:33:10;4.07;;;0.60;;
6852;SDS011;3465;42.144;24.722;2024-01-25T08:35:36;2.60;;;1.30;;
6852;SDS011;3465;42.144;24.722;2024-01-25T08:38:02;2.10;;;0.50;;
6852;SDS011;3465;42.144;24.722;2024-01-25T08:42:53;4.93;;;1.00;;
6852;SDS011;3465;42.144;24.722;2024-01-25T08:45:18;6.53;;;1.02;;
6852;SDS011;3465;42.144;24.722;2024-01-25T08:50:13;5.32;;;1.48;;
6852;SDS011;3465;42.144;24.722;2024-01-25T08:52:39;5.57;;;1.25;;
6852;SDS011;3465;42.144;24.722;2024-01-25T08:55:06;3.67;;;0.68;;
6852;SDS011;3465;42.144;24.722;2024-01-25T08:57:32;4.93;;;1.42;;
6852;SDS011;3465;42.144;24.722;2024-01-25T08:59:58;5.78;;;1.98;;
6852;SDS011;3465;42.144;24.722;2024-01-25T09:04:54;6.55;;;0.63;;
6852;SDS011;3465;42.144;24.722;2024-01-25T09:07:20;6.05;;;1.77;;
6852;SDS011;3465;42.144;24.722;2024-01-25T09:12:11;4.35;;;1.00;;
6852;SDS011;3465;42.144;24.722;2024-01-25T09:14:37;2.88;;;1.45;;
6852;SDS011;3465;42.144;24.722;2024-01-25T09:17:03;4.38;;;1.02;;
6852;SDS011;3465;42.144;24.722;2024-01-25T09:21:55;4.10;;;1.35;;
6852;SDS011;3465;42.144;24.722;2024-01-25T09:24:21;4.78;;;1.02;;
6852;SDS011;3465;42.144;24.722;2024-01-25T09:29:12;10.57;;;1.40;;
6852;SDS011;3465;42.144;24.722;2024-01-25T09:31:38;3.72;;;1.88;;
6852;SDS011;3465;42.144;24.722;2024-01-25T09:34:03;4.95;;;0.70;;
6852;SDS011;3465;42.144;24.722;2024-01-25T09:36:29;7.38;;;0.60;;
6852;SDS011;3465;42.144;24.722;2024-01-25T09:38:54;4.35;;;0.93;;
6852;SDS011;3465;42.144;24.722;2024-01-25T09:41:20;4.80;;;0.70;;
6852;SDS011;3465;42.144;24.722;2024-01-25T09:43:45;2.60;;;1.02;;
6852;SDS011;3465;42.144;24.722;2024-01-25T09:48:38;7.13;;;1.13;;
6852;SDS011;3465;42.144;24.722;2024-01-25T09:51:05;5.90;;;1.35;;
6852;SDS011;3465;42.144;24.722;2024-01-25T09:53:31;4.25;;;1.10;;
6852;SDS011;3465;42.144;24.722;2024-01-25T09:58:43;4.82;;;1.00;;
6852;SDS011;3465;42.144;24.722;2024-01-25T10:01:14;10.43;;;1.77;;
6852;SDS011;3465;42.144;24.722;2024-01-25T10:03:44;6.53;;;1.08;;
6852;SDS011;3465;42.144;24.722;2024-01-25T10:06:11;2.55;;;0.70;;
6852;SDS011;3465;42.144;24.722;2024-01-25T10:08:37;4.65;;;1.30;;
6852;SDS011;3465;42.144;24.722;2024-01-25T10:11:03;3.88;;;0.85;;
6852;SDS011;3465;42.144;24.722;2024-01-25T10:15:55;3.38;;;1.23;;
6852;SDS011;3465;42.144;24.722;2024-01-25T10:18:24;9.45;;;1.55;;
6852;SDS011;3465;42.144;24.722;2024-01-25T10:20:51;9.20;;;1.45;;
6852;SDS011;3465;42.144;24.722;2024-01-25T10:23:18;4.07;;;1.00;;
6852;SDS011;3465;42.144;24.722;2024-01-25T10:25:44;5.25;;;0.88;;
6852;SDS011;3465;42.144;24.722;2024-01-25T10:28:09;5.03;;;1.75;;
6852;SDS011;3465;42.144;24.722;2024-01-25T10:30:35;6.10;;;0.90;;
6852;SDS011;3465;42.144;24.722;2024-01-25T10:35:27;9.48;;;1.45;;
6852;SDS011;3465;42.144;24.722;2024-01-25T10:37:54;4.30;;;1.25;;
6852;SDS011;3465;42.144;24.722;2024-01-25T10:40:20;5.28;;;1.15;;
6852;SDS011;3465;42.144;24.722;2024-01-25T10:42:46;8.70;;;1.63;;
6852;SDS011;3465;42.144;24.722;2024-01-25T10:45:12;4.43;;;0.73;;
6852;SDS011;3465;42.144;24.722;2024-01-25T10:47:38;5.70;;;0.88;;
6852;SDS011;3465;42.144;24.722;2024-01-25T10:50:06;2.33;;;1.13;;
6852;SDS011;3465;42.144;24.722;2024-01-25T10:52:35;5.32;;;0.70;;
6852;SDS011;3465;42.144;24.722;2024-01-25T10:55:03;4.05;;;1.25;;
6852;SDS011;3465;42.144;24.722;2024-01-25T10:57:43;8.05;;;2.13;;
6852;SDS011;3465;42.144;24.722;2024-01-25T11:00:11;3.58;;;0.88;;
6852;SDS011;3465;42.144;24.722;2024-01-25T11:02:41;5.15;;;0.80;;
6852;SDS011;3465;42.144;24.722;2024-01-25T11:05:17;4.25;;;1.88;;
6852;SDS011;3465;42.144;24.722;2024-01-25T11:07:49;4.50;;;0.80;;
6852;SDS011;3465;42.144;24.722;2024-01-25T11:10:23;5.30;;;1.33;;
6852;SDS011;3465;42.144;24.722;2024-01-25T11:12:51;3.97;;;1.00;;
6852;SDS011;3465;42.144;24.722;2024-01-25T11:15:21;3.45;;;1.05;;
6852;SDS011;3465;42.144;24.722;2024-01-25T11:17:54;3.83;;;0.98;;
6852;SDS011;3465;42.144;24.722;2024-01-25T11:20:24;5.38;;;1.00;;
6852;SDS011;3465;42.144;24.722;2024-01-25T11:22:57;12.38;;;1.35;;
6852;SDS011;3465;42.144;24.722;2024-01-25T11:25:26;5.38;;;1.55;;
6852;SDS011;3465;42.144;24.722;2024-01-25T11:28:02;7.57;;;1.00;;
6852;SDS011;3465;42.144;24.722;2024-01-25T11:30:30;7.45;;;1.00;;
6852;SDS011;3465;42.144;24.722;2024-01-25T11:32:57;5.72;;;1.60;;
6852;SDS011;3465;42.144;24.722;2024-01-25T11:35:23;4.68;;;1.00;;
6852;SDS011;3465;42.144;24.722;2024-01-25T11:37:50;6.88;;;1.05;;
6852;SDS011;3465;42.144;24.722;2024-01-25T11:40:20;5.28;;;1.58;;
6852;SDS011;3465;42.144;24.722;2024-01-25T11:42:50;5.10;;;1.55;;
6852;SDS011;3465;42.144;24.722;2024-01-25T11:45:16;4.78;;;1.30;;
6852;SDS011;3465;42.144;24.722;2024-01-25T11:47:42;4.43;;;1.10;;
6852;SDS011;3465;42.144;24.722;2024-01-25T11:50:09;3.60;;;0.98;;
6852;SDS011;3465;42.144;24.722;2024-01-25T11:52:36;4.80;;;1.65;;
6852;SDS011;3465;42.144;24.722;2024-01-25T11:55:03;5.28;;;1.00;;
6852;SDS011;3465;42.144;24.722;2024-01-25T11:57:30;4.85;;;0.63;;
6852;SDS011;3465;42.144;24.722;2024-01-25T11:59:57;5.13;;;1.52;;
6852;SDS011;3465;42.144;24.722;2024-01-25T12:02:23;3.83;;;1.88;;
6852;SDS011;3465;42.144;24.722;2024-01-25T12:07:15;7.78;;;1.60;;
6852;SDS011;3465;42.144;24.722;2024-01-25T12:12:06;4.93;;;1.30;;
6852;SDS011;3465;42.144;24.722;2024-01-25T12:14:34;6.28;;;2.13;;
6852;SDS011;3465;42.144;24.722;2024-01-25T12:19:26;4.88;;;1.38;;
6852;SDS011;3465;42.144;24.722;2024-01-25T12:21:53;9.73;;;1.95;;
6852;SDS011;3465;42.144;24.722;2024-01-25T12:24:19;4.28;;;0.90;;
6852;SDS011;3465;42.144;24.722;2024-01-25T12:26:44;5.47;;;2.30;;
6852;SDS011;3465;42.144;24.722;2024-01-25T12:29:12;3.13;;;1.67;;
6852;SDS011;3465;42.144;24.722;2024-01-25T12:31:38;6.88;;;0.90;;
6852;SDS011;3465;42.144;24.722;2024-01-25T12:34:03;6.07;;;1.70;;
6852;SDS011;3465;42.144;24.722;2024-01-25T12:36:39;7.07;;;1.98;;
6852;SDS011;3465;42.144;24.722;2024-01-25T12:39:05;4.70;;;1.58;;
6852;SDS011;3465;42.144;24.722;2024-01-25T12:41:31;3.55;;;0.98;;
6852;SDS011;3465;42.144;24.722;2024-01-25T12:43:57;6.35;;;0.68;;
6852;SDS011;3465;42.144;24.722;2024-01-25T12:46:22;3.50;;;0.70;;
6852;SDS011;3465;42.144;24.722;2024-01-25T12:48:48;4.10;;;1.40;;
6852;SDS011;3465;42.144;24.722;2024-01-25T12:51:14;6.32;;;1.52;;
6852;SDS011;3465;42.144;24.722;2024-01-25T12:53:39;4.68;;;0.90;;
6852;SDS011;3465;42.144;24.722;2024-01-25T12:56:05;6.18;;;1.25;;
6852;SDS011;3465;42.144;24.722;2024-01-25T12:58:31;10.45;;;1.30;;
6852;SDS011;3465;42.144;24.722;2024-01-25T13:00:56;3.65;;;1.00;;
6852;SDS011;3465;42.144;24.722;2024-01-25T13:03:22;6.60;;;1.33;;
6852;SDS011;3465;42.144;24.722;2024-01-25T13:05:48;4.20;;;0.82;;
6852;SDS011;3465;42.144;24.722;2024-01-25T13:08:13;3.55;;;1.45;;
6852;SDS011;3465;42.144;24.722;2024-01-25T13:10:38;5.70;;;1.05;;
6852;SDS011;3465;42.144;24.722;2024-01-25T13:13:04;3.35;;;1.25;;
6852;SDS011;3465;42.144;24.722;2024-01-25T13:15:31;3.58;;;1.27;;
6852;SDS011;3465;42.144;24.722;2024-01-25T13:17:57;5.97;;;0.90;;
6852;SDS011;3465;42.144;24.722;2024-01-25T13:20:22;4.40;;;0.70;;
6852;SDS011;3465;42.144;24.722;2024-01-25T13:22:47;3.50;;;0.80;;
6852;SDS011;3465;42.144;24.722;2024-01-25T13:25:13;3.90;;;0.73;;
6852;SDS011;3465;42.144;24.722;2024-01-25T13:27:40;3.13;;;0.77;;
6852;SDS011;3465;42.144;24.722;2024-01-25T13:30:05;8.13;;;1.45;;
6852;SDS011;3465;42.144;24.722;2024-01-25T13:32:31;7.53;;;1.88;;
6852;SDS011;3465;42.144;24.722;2024-01-25T13:34:57;4.05;;;0.80;;
6852;SDS011;3465;42.144;24.722;2024-01-25T13:37:22;3.38;;;1.40;;
6852;SDS011;3465;42.144;24.722;2024-01-25T13:39:48;4.13;;;1.55;;
6852;SDS011;3465;42.144;24.722;2024-01-25T13:42:13;5.05;;;1.40;;
6852;SDS011;3465;42.144;24.722;2024-01-25T13:44:38;7.32;;;1.80;;
6852;SDS011;3465;42.144;24.722;2024-01-25T13:47:04;4.82;;;1.25;;
6852;SDS011;3465;42.144;24.722;2024-01-25T13:49:30;4.22;;;1.25;;
6852;SDS011;3465;42.144;24.722;2024-01-25T13:51:55;4.95;;;1.00;;
6852;SDS011;3465;42.144;24.722;2024-01-25T13:54:21;5.97;;;1.05;;
6852;SDS011;3465;42.144;24.722;2024-01-25T13:56:46;5.38;;;1.20;;
6852;SDS011;3465;42.144;24.722;2024-01-25T13:59:12;3.08;;;0.98;;
6852;SDS011;3465;42.144;24.722;2024-01-25T14:01:37;3.47;;;1.00;;
6852;SDS011;3465;42.144;24.722;2024-01-25T14:04:03;8.95;;;1.58;;
6852;SDS011;3465;42.144;24.722;2024-01-25T14:06:29;6.72;;;1.92;;
6852;SDS011;3465;42.144;24.722;2024-01-25T14:08:54;6.22;;;1.35;;
6852;SDS011;3465;42.144;24.722;2024-01-25T14:11:20;3.40;;;1.20;;
6852;SDS011;3465;42.144;24.722;2024-01-25T14:13:45;7.20;;;2.28;;
6852;SDS011;3465;42.144;24.722;2024-01-25T14:16:11;3.28;;;1.00;;
6852;SDS011;3465;42.144;24.722;2024-01-25T14:18:41;4.85;;;1.83;;
6852;SDS011;3465;42.144;24.722;2024-01-25T14:21:07;5.35;;;1.45;;
6852;SDS011;3465;42.144;24.722;2024-01-25T14:23:32;5.32;;;1.05;;
6852;SDS011;3465;42.144;24.722;2024-01-25T14:25:58;2.47;;;1.23;;
6852;SDS011;3465;42.144;24.722;2024-01-25T14:28:23;5.18;;;1.98;;
6852;SDS011;3465;42.144;24.722;2024-01-25T14:30:49;7.22;;;1.10;;
6852;SDS011;3465;42.144;24.722;2024-01-25T14:33:14;6.50;;;2.28;;
6852;SDS011;3465;42.144;24.722;2024-01-25T14:35:40;6.72;;;1.08;;
6852;SDS011;3465;42.144;24.722;2024-01-25T14:38:05;7.32;;;1.23;;
6852;SDS011;3465;42.144;24.722;2024-01-25T14:40:31;4.55;;;1.38;;
6852;SDS011;3465;42.144;24.722;2024-01-25T14:42:56;5.88;;;1.70;;
6852;SDS011;3465;42.144;24.722;2024-01-25T14:45:22;3.63;;;1.70;;
6852;SDS011;3465;42.144;24.722;2024-01-25T14:47:48;5.25;;;2.05;;
6852;SDS011;3465;42.144;24.722;2024-01-25T14:50:13;5.63;;;1.30;;
6852;SDS011;3465;42.144;24.722;2024-01-25T14:52:39;7.13;;;2.00;;
6852;SDS011;3465;42.144;24.722;2024-01-25T14:55:04;7.05;;;1.85;;
6852;SDS011;3465;42.144;24.722;2024-01-25T14:57:30;7.18;;;1.73;;
6852;SDS011;3465;42.144;24.722;2024-01-25T14:59:55;3.22;;;1.00;;
6852;SDS011;3465;42.144;24.722;2024-01-25T15:02:21;10.85;;;1.33;;
6852;SDS011;3465;42.144;24.722;2024-01-25T15:04:47;7.57;;;1.23;;
6852;SDS011;3465;42.144;24.722;2024-01-25T15:07:12;4.18;;;1.58;;
6852;SDS011;3465;42.144;24.722;2024-01-25T15:09:39;4.72;;;0.90;;
6852;SDS011;3465;42.144;24.722;2024-01-25T15:12:05;3.00;;;1.58;;
6852;SDS011;3465;42.144;24.722;2024-01-25T15:14:33;3.42;;;1.55;;
6852;SDS011;3465;42.144;24.722;2024-01-25T15:16:59;6.32;;;1.30;;
6852;SDS011;3465;42.144;24.722;2024-01-25T15:19:24;5.72;;;1.42;;
6852;SDS011;3465;42.144;24.722;2024-01-25T15:21:50;3.17;;;1.20;;
6852;SDS011;3465;42.144;24.722;2024-01-25T15:24:15;2.25;;;1.13;;
6852;SDS011;3465;42.144;24.722;2024-01-25T15:26:41;6.75;;;1.13;;
6852;SDS011;3465;42.144;24.722;2024-01-25T15:29:07;3.25;;;1.13;;
6852;SDS011;3465;42.144;24.722;2024-01-25T15:31:33;3.95;;;1.20;;
6852;SDS011;3465;42.144;24.722;2024-01-25T15:33:58;8.32;;;2.20;;
6852;SDS011;3465;42.144;24.722;2024-01-25T15:36:24;4.47;;;1.70;;
6852;SDS011;3465;42.144;24.722;2024-01-25T15:38:49;4.95;;;1.30;;